Time;durP1;ratioP1;P1;durP2;ratioP2;P2;SDS_P1;SDS_P2;PMS_P1;PMS_P2;Temp;Humidity;BMP_temperature;BMP_pressure;BME280_temperature;BME280_humidity;BME280_pressure;Samples;Min_cycle;Max_cycle;Signal;HPM_P1;HPM_P2
2022/10/09 00:01:32;;;;;;;13.00;8.18;;;;;;;3.15;100.00;99530.88;4187385;28;20132;-71
2022/10/09 00:03:34;;;;;;;15.40;9.43;;;;;;;3.17;100.00;99531.38;4186777;28;20051;-71
2022/10/09 00:05:35;;;;;;;17.23;8.63;;;;;;;3.22;100.00;99530.44;4187064;28;20429;-71
2022/10/09 00:07:35;;;;;;;13.80;8.55;;;;;;;3.23;100.00;99534.81;4185877;28;20044;-71
2022/10/09 00:09:35;;;;;;;15.40;8.88;;;;;;;3.16;100.00;99537.97;4186799;28;20048;-71
2022/10/09 00:11:36;;;;;;;10.80;8.30;;;;;;;3.13;100.00;99535.81;4188788;28;20191;-71
2022/10/09 00:13:36;;;;;;;14.55;8.40;;;;;;;3.14;100.00;99526.50;4187800;28;20033;-71
2022/10/09 00:15:41;;;;;;;10.50;8.05;;;;;;;3.13;100.00;99526.81;4187043;28;20048;-71
2022/10/09 00:17:41;;;;;;;13.32;8.20;;;;;;;3.18;100.00;99532.19;4187972;28;20706;-71
2022/10/09 00:19:41;;;;;;;15.23;9.10;;;;;;;3.08;100.00;99527.72;4186399;28;20039;-71
2022/10/09 00:21:42;;;;;;;14.40;8.02;;;;;;;3.03;100.00;99530.53;4187916;28;20538;-71
2022/10/09 00:23:42;;;;;;;10.15;7.72;;;;;;;2.99;100.00;99535.00;4187621;28;20307;-71
2022/10/09 00:26:00;;;;;;;13.65;7.60;;;;;;;2.93;100.00;99528.00;4186893;28;20742;-71
2022/10/09 00:28:02;;;;;;;12.52;7.65;;;;;;;2.85;100.00;99528.72;4183134;28;20396;-71
2022/10/09 00:30:03;;;;;;;10.48;7.50;;;;;;;2.67;100.00;99536.66;4186056;28;20051;-72
2022/10/09 00:32:04;;;;;;;13.23;8.65;;;;;;;2.56;100.00;99539.88;4188823;28;20039;-72
2022/10/09 00:34:04;;;;;;;9.95;6.95;;;;;;;2.46;100.00;99541.66;4185781;28;20035;-72
2022/10/09 00:36:13;;;;;;;12.90;7.38;;;;;;;2.44;100.00;99537.63;4185025;28;20033;-71
2022/10/09 00:38:13;;;;;;;10.98;7.90;;;;;;;2.45;100.00;99539.22;4187038;28;20028;-72
2022/10/09 00:40:15;;;;;;;10.48;7.65;;;;;;;2.52;100.00;99532.28;4187271;28;20665;-71
2022/10/09 00:42:15;;;;;;;13.50;7.65;;;;;;;2.57;100.00;99534.13;4185921;28;20107;-71
2022/10/09 00:44:55;;;;;;;10.50;7.60;;;;;;;2.57;100.00;99530.59;4186857;28;20421;-71
2022/10/09 00:46:56;;;;;;;10.48;7.40;;;;;;;2.43;100.00;99528.59;4187117;28;20049;-71
2022/10/09 00:48:59;;;;;;;12.02;8.10;;;;;;;2.34;100.00;99537.78;4186065;28;20435;-71
2022/10/09 00:51:01;;;;;;;12.82;7.63;;;;;;;2.39;100.00;99537.69;4186814;28;20052;-71
2022/10/09 00:53:02;;;;;;;11.35;7.90;;;;;;;2.39;100.00;99535.75;4184776;28;20032;-71
2022/10/09 00:55:04;;;;;;;12.95;8.82;;;;;;;2.40;100.00;99536.56;4186382;28;20437;-71
2022/10/09 00:57:04;;;;;;;15.05;8.63;;;;;;;2.44;100.00;99538.41;4186949;28;20075;-71
2022/10/09 00:59:05;;;;;;;12.13;8.07;;;;;;;2.47;100.00;99537.81;4186190;28;20058;-71
2022/10/09 01:01:06;;;;;;;12.70;8.25;;;;;;;2.57;100.00;99536.03;4186786;28;20767;-71
2022/10/09 01:03:06;;;;;;;11.77;8.23;;;;;;;2.61;100.00;99539.78;4185535;28;20075;-71
2022/10/09 01:05:08;;;;;;;14.00;9.15;;;;;;;2.53;100.00;99535.81;4185419;28;20056;-71
2022/10/09 01:07:33;;;;;;;11.52;8.02;;;;;;;2.48;100.00;99541.34;4186233;28;20081;-71
2022/10/09 01:09:56;;;;;;;11.90;7.65;;;;;;;2.40;100.00;99542.88;4185559;28;20052;-71
2022/10/09 01:12:25;;;;;;;12.32;8.50;;;;;;;2.27;100.00;99534.63;4145521;28;20059;-71
2022/10/09 01:14:38;;;;;;;14.55;8.80;;;;;;;2.28;100.00;99534.31;4182485;28;20227;-71
2022/10/09 01:16:55;;;;;;;13.65;7.68;;;;;;;2.41;100.00;99549.16;4186138;28;20528;-71
2022/10/09 01:19:10;;;;;;;12.18;7.28;;;;;;;2.44;100.00;99543.06;4185904;28;20765;-71
2022/10/09 01:21:13;;;;;;;12.07;8.10;;;;;;;2.37;99.08;99542.63;4186098;28;20029;-71
2022/10/09 01:23:34;;;;;;;13.07;7.00;;;;;;;2.32;99.84;99542.72;4185711;28;20389;-70
2022/10/09 01:25:48;;;;;;;14.23;7.78;;;;;;;2.28;100.00;99539.78;4186628;28;20500;-71
2022/10/09 01:27:48;;;;;;;10.70;6.78;;;;;;;2.19;100.00;99544.28;4186023;28;20092;-71
2022/10/09 01:30:09;;;;;;;15.23;7.35;;;;;;;2.16;100.00;99537.50;4185565;28;20070;-71
2022/10/09 01:32:13;;;;;;;11.63;6.95;;;;;;;2.09;100.00;99533.53;4185682;28;20048;-71
2022/10/09 01:34:16;;;;;;;11.88;7.57;;;;;;;1.93;100.00;99536.50;4185990;28;20051;-71
2022/10/09 01:36:18;;;;;;;14.05;8.30;;;;;;;1.81;100.00;99535.28;4184974;28;20452;-71
2022/10/09 01:38:22;;;;;;;14.20;8.20;;;;;;;1.78;100.00;99533.97;4186151;28;20025;-71
2022/10/09 01:40:24;;;;;;;12.80;7.28;;;;;;;1.72;100.00;99529.69;4185602;28;20040;-71
2022/10/09 01:42:28;;;;;;;11.13;7.40;;;;;;;1.67;100.00;99536.03;4185093;28;20036;-71
2022/10/09 01:44:30;;;;;;;17.70;9.25;;;;;;;1.63;100.00;99532.25;4185008;28;20485;-71
2022/10/09 01:46:31;;;;;;;13.48;9.20;;;;;;;1.63;100.00;99526.81;4184233;28;20296;-71
2022/10/09 01:48:32;;;;;;;14.85;9.30;;;;;;;1.66;100.00;99531.69;4184769;28;20094;-71
2022/10/09 01:50:39;;;;;;;13.20;8.60;;;;;;;1.64;100.00;99522.97;4185681;28;20480;-71
2022/10/09 01:53:02;;;;;;;12.80;8.55;;;;;;;1.69;100.00;99522.09;4184038;28;20033;-71
2022/10/09 01:55:25;;;;;;;14.85;9.18;;;;;;;1.71;100.00;99522.59;4184593;28;20431;-71
2022/10/09 01:57:39;;;;;;;15.70;9.05;;;;;;;1.75;100.00;99523.66;4185939;28;20052;-71
2022/10/09 01:59:43;;;;;;;16.63;9.15;;;;;;;1.74;100.00;99526.66;4184291;28;20036;-71
2022/10/09 02:01:45;;;;;;;16.42;9.10;;;;;;;1.75;100.00;99529.13;4185563;28;20045;-71
2022/10/09 02:03:49;;;;;;;12.95;8.63;;;;;;;1.81;100.00;99529.84;4185144;28;20086;-71
2022/10/09 02:05:51;;;;;;;14.57;8.85;;;;;;;1.81;100.00;99522.47;4186351;28;20039;-71
2022/10/09 02:07:53;;;;;;;11.13;8.25;;;;;;;1.87;100.00;99525.94;4173763;28;20036;-71
2022/10/09 02:09:55;;;;;;;15.32;8.43;;;;;;;1.88;100.00;99527.56;4185123;28;20051;-71
2022/10/09 02:12:00;;;;;;;13.10;8.85;;;;;;;1.93;100.00;99527.50;4185136;28;20627;-71
2022/10/09 02:14:00;;;;;;;14.60;8.60;;;;;;;1.97;100.00;99523.06;4185663;28;20165;-71
2022/10/09 02:16:10;;;;;;;11.95;8.25;;;;;;;1.94;100.00;99531.84;4174073;28;20495;-71
2022/10/09 02:18:13;;;;;;;14.15;8.48;;;;;;;1.88;100.00;99524.81;4185483;28;20145;-71
2022/10/09 02:20:17;;;;;;;15.20;8.38;;;;;;;1.81;100.00;99527.09;4183164;28;20512;-71
2022/10/09 02:22:22;;;;;;;11.23;7.63;;;;;;;1.72;100.00;99524.22;4183468;28;20034;-71
2022/10/09 02:24:23;;;;;;;17.10;8.95;;;;;;;1.69;100.00;99522.09;4184185;28;20052;-71
2022/10/09 02:26:25;;;;;;;14.65;8.60;;;;;;;1.75;100.00;99531.03;4184412;28;20055;-71
2022/10/09 02:28:25;;;;;;;15.98;8.88;;;;;;;1.78;100.00;99528.50;4185171;28;20046;-71
2022/10/09 02:30:30;;;;;;;15.73;8.73;;;;;;;1.73;100.00;99534.03;4184666;28;20455;-71
2022/10/09 02:32:30;;;;;;;15.30;8.50;;;;;;;1.65;99.65;99534.69;4184750;28;20045;-71
2022/10/09 02:34:31;;;;;;;13.35;8.88;;;;;;;1.50;99.61;99530.28;4185433;28;20542;-71
2022/10/09 02:36:32;;;;;;;13.07;8.50;;;;;;;1.52;100.00;99541.69;4184085;28;20040;-71
2022/10/09 02:38:33;;;;;;;13.95;7.82;;;;;;;1.57;100.00;99540.78;4183271;28;20074;-71
2022/10/09 02:40:33;;;;;;;13.90;7.93;;;;;;;1.61;100.00;99550.84;4185888;28;20471;-71
2022/10/09 02:42:33;;;;;;;12.98;7.57;;;;;;;1.57;100.00;99536.19;4184522;28;20040;-71
2022/10/09 02:44:34;;;;;;;13.98;7.65;;;;;;;1.54;100.00;99538.66;4185164;28;20044;-71
2022/10/09 02:46:34;;;;;;;10.30;7.05;;;;;;;1.51;100.00;99540.06;4186829;28;20049;-71
2022/10/09 02:48:34;;;;;;;12.50;7.68;;;;;;;1.49;100.00;99536.84;4187278;28;20044;-71
2022/10/09 02:50:35;;;;;;;14.55;8.52;;;;;;;1.49;100.00;99538.72;4187396;28;20392;-71
2022/10/09 02:52:35;;;;;;;12.02;8.07;;;;;;;1.53;100.00;99543.31;4185837;28;20041;-71
2022/10/09 02:54:35;;;;;;;11.32;7.95;;;;;;;1.51;100.00;99533.81;4184377;28;20636;-71
2022/10/09 02:56:36;;;;;;;14.00;6.88;;;;;;;1.47;100.00;99535.47;4186236;28;20071;-71
2022/10/09 02:58:37;;;;;;;11.77;7.10;;;;;;;1.44;100.00;99536.06;4185321;28;20040;-71
2022/10/09 03:00:38;;;;;;;14.63;7.60;;;;;;;1.39;100.00;99534.22;4185715;28;20052;-71
2022/10/09 03:02:38;;;;;;;9.85;7.13;;;;;;;1.27;100.00;99537.38;4185951;28;20208;-71
2022/10/09 03:04:38;;;;;;;10.98;6.97;;;;;;;1.15;100.00;99545.13;4186256;28;20131;-71
2022/10/09 03:06:39;;;;;;;14.43;6.78;;;;;;;1.09;100.00;99549.84;4186182;28;20448;-71
2022/10/09 03:08:42;;;;;;;10.98;7.00;;;;;;;1.05;100.00;99551.50;4185150;28;20092;-71
2022/10/09 03:10:43;;;;;;;9.50;6.25;;;;;;;0.97;100.00;99545.88;4185591;28;20086;-71
2022/10/09 03:12:44;;;;;;;10.52;6.47;;;;;;;0.89;100.00;99541.06;4185833;28;20045;-71
2022/10/09 03:14:44;;;;;;;13.18;7.13;;;;;;;0.78;100.00;99538.44;4185849;28;20063;-71
2022/10/09 03:16:44;;;;;;;11.15;7.68;;;;;;;0.75;100.00;99544.47;4185749;28;20084;-71
2022/10/09 03:18:46;;;;;;;11.45;7.05;;;;;;;0.83;100.00;99551.22;4185977;28;20114;-71
2022/10/09 03:20:47;;;;;;;9.85;6.97;;;;;;;0.90;100.00;99545.41;4185739;28;20032;-71
2022/10/09 03:22:47;;;;;;;9.63;6.68;;;;;;;0.98;100.00;99542.03;4185890;28;20044;-71
2022/10/09 03:24:47;;;;;;;10.60;6.88;;;;;;;1.06;100.00;99552.31;4185896;28;20722;-71
2022/10/09 03:26:48;;;;;;;10.15;6.75;;;;;;;1.10;100.00;99543.28;4186032;28;20492;-71
2022/10/09 03:28:50;;;;;;;14.93;7.35;;;;;;;1.07;100.00;99543.03;4185186;28;20076;-71
2022/10/09 03:30:51;;;;;;;10.88;7.60;;;;;;;0.99;100.00;99546.38;4184984;28;20049;-71
2022/10/09 03:32:51;;;;;;;14.38;8.43;;;;;;;0.97;100.00;99546.69;4186415;28;20370;-71
2022/10/09 03:34:52;;;;;;;13.05;7.47;;;;;;;1.04;100.00;99552.59;4185267;28;20529;-71
2022/10/09 03:36:52;;;;;;;12.85;7.85;;;;;;;1.04;100.00;99547.16;4185226;28;20041;-71
2022/10/09 03:38:52;;;;;;;10.63;7.03;;;;;;;1.05;100.00;99550.69;4185135;28;20048;-71
2022/10/09 03:40:53;;;;;;;11.27;6.97;;;;;;;0.95;100.00;99545.34;4185850;28;20127;-71
2022/10/09 03:42:53;;;;;;;13.50;6.80;;;;;;;0.92;100.00;99552.22;4185921;28;20130;-71
2022/10/09 03:44:54;;;;;;;12.38;6.75;;;;;;;0.92;100.00;99556.84;4183798;28;20271;-71
2022/10/09 03:46:54;;;;;;;9.85;6.07;;;;;;;0.93;100.00;99555.75;4186379;28;20086;-71
2022/10/09 03:48:54;;;;;;;10.77;6.88;;;;;;;0.96;100.00;99555.97;4184960;28;20055;-71
2022/10/09 03:50:55;;;;;;;9.43;6.00;;;;;;;0.93;100.00;99551.09;4185828;28;20064;-70
2022/10/09 03:52:55;;;;;;;11.10;6.85;;;;;;;0.85;100.00;99554.47;4185735;28;20090;-70
2022/10/09 03:54:55;;;;;;;8.93;6.47;;;;;;;0.71;100.00;99553.50;4185186;28;20052;-70
2022/10/09 03:56:56;;;;;;;10.07;6.53;;;;;;;0.57;100.00;99553.34;4186079;28;20199;-70
2022/10/09 03:58:56;;;;;;;9.85;5.90;;;;;;;0.48;100.00;99549.59;4185306;28;20980;-70
2022/10/09 04:00:56;;;;;;;10.27;7.28;;;;;;;0.44;100.00;99554.81;4185585;28;20132;-70
2022/10/09 04:02:57;;;;;;;9.88;6.55;;;;;;;0.43;100.00;99555.13;4185647;28;20455;-70
2022/10/09 04:04:57;;;;;;;11.15;7.15;;;;;;;0.43;100.00;99558.66;4185617;28;20524;-70
2022/10/09 04:06:57;;;;;;;10.73;6.25;;;;;;;0.36;100.00;99560.88;4185416;28;20712;-70
2022/10/09 04:09:00;;;;;;;12.73;6.60;;;;;;;0.39;100.00;99556.75;4185381;28;20055;-70
2022/10/09 04:11:01;;;;;;;9.70;5.68;;;;;;;0.48;100.00;99565.94;4185671;28;20051;-71
2022/10/09 04:13:01;;;;;;;13.82;6.97;;;;;;;0.51;100.00;99571.66;4185388;28;20044;-70
2022/10/09 04:15:03;;;;;;;13.68;7.15;;;;;;;0.52;100.00;99569.75;4185834;28;20105;-70
2022/10/09 04:17:03;;;;;;;7.28;5.78;;;;;;;0.41;100.00;99565.44;4185257;28;20328;-70
2022/10/09 04:19:03;;;;;;;12.30;6.20;;;;;;;0.47;100.00;99572.50;4185007;28;20051;-70
2022/10/09 04:21:04;;;;;;;8.95;5.95;;;;;;;0.50;100.00;99566.50;4185690;28;20044;-70
2022/10/09 04:23:04;;;;;;;11.25;5.55;;;;;;;0.51;100.00;99570.84;4172864;28;20059;-70
2022/10/09 04:25:04;;;;;;;6.85;5.43;;;;;;;0.49;100.00;99567.56;4188163;28;20044;-70
2022/10/09 04:27:05;;;;;;;11.15;6.45;;;;;;;0.44;100.00;99564.91;4187962;28;20301;-70
2022/10/09 04:29:05;;;;;;;6.75;5.65;;;;;;;0.41;100.00;99566.25;4187816;28;20040;-70
2022/10/09 04:31:05;;;;;;;9.05;5.60;;;;;;;0.41;100.00;99563.53;4187254;28;20044;-70
2022/10/09 04:33:06;;;;;;;10.57;5.90;;;;;;;0.40;100.00;99572.00;4188436;28;20194;-70
2022/10/09 04:35:06;;;;;;;8.55;5.60;;;;;;;0.31;100.00;99560.91;4187804;28;20479;-70
2022/10/09 04:37:07;;;;;;;8.40;5.20;;;;;;;0.30;100.00;99566.66;4187887;28;20125;-70
2022/10/09 04:39:07;;;;;;;9.18;5.35;;;;;;;0.17;100.00;99563.47;4187968;28;20074;-70
2022/10/09 04:41:09;;;;;;;10.25;6.20;;;;;;;0.12;100.00;99559.97;4188162;28;20051;-70
2022/10/09 04:43:09;;;;;;;10.13;6.63;;;;;;;0.07;100.00;99551.84;4187943;28;20039;-70
2022/10/09 04:45:10;;;;;;;14.40;6.65;;;;;;;0.08;100.00;99561.63;4186510;28;20817;-70
2022/10/09 04:47:10;;;;;;;10.60;7.28;;;;;;;0.00;100.00;99552.16;4188237;28;20298;-70
2022/10/09 04:49:12;;;;;;;12.77;7.10;;;;;;;0.12;100.00;99562.69;4188534;28;20353;-70
2022/10/09 04:51:14;;;;;;;11.35;6.75;;;;;;;0.17;100.00;99555.31;4188336;28;20048;-70
2022/10/09 04:53:15;;;;;;;9.52;6.30;;;;;;;0.20;100.00;99549.28;4188241;28;20063;-70
2022/10/09 04:55:15;;;;;;;11.25;5.68;;;;;;;0.21;100.00;99553.63;4187698;28;20049;-70
2022/10/09 04:57:15;;;;;;;10.38;6.13;;;;;;;0.15;100.00;99551.22;4189116;28;20539;-70
2022/10/09 04:59:16;;;;;;;11.90;6.25;;;;;;;0.13;100.00;99556.16;4186129;28;20080;-70
2022/10/09 05:01:23;;;;;;;8.45;5.85;;;;;;;0.10;100.00;99556.72;4188567;28;20207;-70
2022/10/09 05:03:23;;;;;;;8.35;5.53;;;;;;;-0.01;100.00;99554.06;4189429;28;20041;-70
2022/10/09 05:05:23;;;;;;;10.60;6.35;;;;;;;-0.05;100.00;99563.06;4187561;28;20049;-70
2022/10/09 05:07:24;;;;;;;9.73;5.78;;;;;;;-0.08;100.00;99559.03;4188717;28;20380;-70
2022/10/09 05:09:24;;;;;;;10.13;6.35;;;;;;;-0.13;100.00;99560.94;4187284;28;20094;-70
2022/10/09 05:11:25;;;;;;;8.38;6.00;;;;;;;-0.17;100.00;99563.41;4188143;28;20040;-70
2022/10/09 05:13:32;;;;;;;11.77;6.72;;;;;;;-0.22;100.00;99558.00;4187632;28;20049;-70
2022/10/09 05:15:36;;;;;;;8.85;5.80;;;;;;;-0.09;100.00;99567.44;4187705;28;20059;-70
2022/10/09 05:17:36;;;;;;;12.90;5.85;;;;;;;-0.02;100.00;99568.75;4187459;28;20040;-70
2022/10/09 05:19:37;;;;;;;10.82;6.22;;;;;;;0.09;100.00;99574.97;4186922;28;20093;-70
2022/10/09 05:21:38;;;;;;;10.07;6.05;;;;;;;0.11;100.00;99561.06;4187772;28;20075;-70
2022/10/09 05:23:38;;;;;;;9.05;6.30;;;;;;;0.10;100.00;99583.94;4125037;28;20088;-70
2022/10/09 05:25:39;;;;;;;11.18;5.80;;;;;;;0.02;100.00;99571.75;4181236;28;20135;-70
2022/10/09 05:27:39;;;;;;;11.65;7.00;;;;;;;0.06;100.00;99574.69;4188410;28;20033;-70
2022/10/09 05:29:39;;;;;;;11.65;6.13;;;;;;;0.16;100.00;99580.06;4186751;28;20080;-70
2022/10/09 05:31:41;;;;;;;9.40;5.93;;;;;;;0.19;100.00;99568.63;4187386;28;20102;-70
2022/10/09 05:33:42;;;;;;;7.93;5.85;;;;;;;0.22;100.00;99579.75;4186700;28;20385;-70
2022/10/09 05:35:59;;;;;;;10.77;5.55;;;;;;;0.14;100.00;99566.75;4186594;28;20102;-70
2022/10/09 05:38:00;;;;;;;9.50;5.55;;;;;;;0.02;100.00;99568.22;4186989;28;20079;-70
2022/10/09 05:40:00;;;;;;;12.63;5.65;;;;;;;-0.11;100.00;99562.28;4186452;28;20544;-70
2022/10/09 05:42:01;;;;;;;7.88;5.20;;;;;;;-0.20;100.00;99568.59;4187288;28;20036;-70
2022/10/09 05:44:02;;;;;;;12.40;6.10;;;;;;;-0.28;100.00;99559.94;4186037;28;20043;-71
2022/10/09 05:46:17;;;;;;;8.73;6.03;;;;;;;-0.22;100.00;99555.28;4187240;28;20044;-70
2022/10/09 05:48:17;;;;;;;10.90;6.95;;;;;;;-0.23;100.00;99569.19;4185806;28;20402;-70
2022/10/09 05:50:18;;;;;;;9.77;7.68;;;;;;;-0.25;100.00;99563.19;4187951;28;20356;-70
2022/10/09 05:52:18;;;;;;;13.75;7.57;;;;;;;-0.24;100.00;99576.53;4186375;28;20127;-70
2022/10/09 05:54:18;;;;;;;10.85;7.43;;;;;;;-0.24;100.00;99571.09;4186850;28;20503;-70
2022/10/09 05:56:24;;;;;;;10.80;6.97;;;;;;;-0.26;100.00;99572.44;4186341;28;20060;-70
2022/10/09 05:58:25;;;;;;;9.55;6.30;;;;;;;-0.28;100.00;99564.56;4187036;28;20041;-70
2022/10/09 06:00:25;;;;;;;9.75;5.75;;;;;;;-0.32;100.00;99569.75;4188271;28;20098;-70
2022/10/09 06:02:25;;;;;;;9.38;5.65;;;;;;;-0.35;100.00;99564.06;4185981;28;20169;-70
2022/10/09 06:04:26;;;;;;;9.30;5.80;;;;;;;-0.36;100.00;99568.69;4186667;28;20127;-70
2022/10/09 06:06:28;;;;;;;12.25;6.35;;;;;;;-0.37;100.00;99567.06;4185818;28;20477;-70
2022/10/09 06:08:36;;;;;;;8.68;5.93;;;;;;;-0.38;100.00;99562.72;4186443;28;20533;-70
2022/10/09 06:10:37;;;;;;;7.20;5.13;;;;;;;-0.39;100.00;99563.81;4186922;28;20116;-70
2022/10/09 06:12:37;;;;;;;8.52;5.35;;;;;;;-0.35;100.00;99559.44;4181067;28;20524;-70
2022/10/09 06:14:37;;;;;;;7.78;5.28;;;;;;;-0.36;100.00;99565.16;4178654;28;20110;-70
2022/10/09 06:16:41;;;;;;;9.20;5.43;;;;;;;-0.36;100.00;99567.88;4186738;28;20191;-70
2022/10/09 06:18:43;;;;;;;13.18;6.50;;;;;;;-0.40;100.00;99551.31;4186305;28;20190;-70
2022/10/09 06:20:57;;;;;;;11.20;7.68;;;;;;;-0.40;100.00;99562.19;4186694;28;20460;-70
2022/10/09 06:22:57;;;;;;;14.65;7.85;;;;;;;-0.37;100.00;99572.50;4186595;28;20086;-70
2022/10/09 06:24:57;;;;;;;13.95;7.47;;;;;;;-0.37;100.00;99569.78;4185449;28;20076;-70
2022/10/09 06:26:58;;;;;;;13.23;8.20;;;;;;;-0.36;100.00;99557.81;4186930;28;20136;-70
2022/10/09 06:29:00;;;;;;;13.10;7.47;;;;;;;-0.31;100.00;99568.66;4185921;28;20060;-70
2022/10/09 06:31:09;;;;;;;15.90;7.70;;;;;;;-0.27;100.00;99568.91;4184640;28;20032;-70
2022/10/09 06:33:09;;;;;;;14.27;8.30;;;;;;;-0.25;100.00;99569.44;4186646;28;20712;-70
2022/10/09 06:35:10;;;;;;;12.10;7.63;;;;;;;-0.22;100.00;99571.59;4187263;28;20234;-70
2022/10/09 06:37:10;;;;;;;16.48;8.88;;;;;;;-0.06;100.00;99570.44;4186525;28;20115;-70
2022/10/09 06:39:10;;;;;;;12.68;7.18;;;;;;;0.11;100.00;99580.94;4183405;28;20067;-70
2022/10/09 06:41:16;;;;;;;15.65;7.28;;;;;;;0.20;100.00;99586.59;4186911;28;20148;-70
2022/10/09 06:43:16;;;;;;;14.65;7.18;;;;;;;0.28;100.00;99588.72;4186633;28;20487;-70
2022/10/09 06:45:17;;;;;;;11.45;6.90;;;;;;;0.37;100.00;99588.91;4186265;28;20072;-70
2022/10/09 06:47:17;;;;;;;10.85;7.15;;;;;;;0.38;100.00;99580.47;4186439;28;20150;-70
2022/10/09 06:49:17;;;;;;;12.43;7.93;;;;;;;0.45;100.00;99585.59;4185838;28;20291;-70
2022/10/09 06:51:20;;;;;;;17.27;9.02;;;;;;;0.50;100.00;99591.81;4186064;28;20051;-70
2022/10/09 06:53:20;;;;;;;21.98;13.57;;;;;;;0.56;100.00;99584.41;4185245;28;20049;-70
2022/10/09 06:55:20;;;;;;;18.15;11.30;;;;;;;0.63;100.00;99589.53;4185675;28;20052;-70
2022/10/09 06:57:21;;;;;;;20.60;11.57;;;;;;;0.68;100.00;99589.50;4186278;28;20090;-70
2022/10/09 06:59:21;;;;;;;15.20;10.15;;;;;;;0.84;100.00;99604.59;4186202;28;20047;-70
2022/10/09 07:01:26;;;;;;;15.63;9.63;;;;;;;0.91;100.00;99606.97;4186178;28;20116;-70
2022/10/09 07:03:26;;;;;;;10.40;7.22;;;;;;;0.97;100.00;99603.91;4185269;28;20072;-70
2022/10/09 07:05:26;;;;;;;15.50;8.23;;;;;;;1.03;100.00;99610.94;4185484;28;20975;-70
2022/10/09 07:07:27;;;;;;;10.23;7.15;;;;;;;1.15;100.00;99607.00;4187242;28;20582;-70
2022/10/09 07:09:27;;;;;;;8.75;6.80;;;;;;;1.16;100.00;99604.03;4184955;28;20049;-70
2022/10/09 07:11:31;;;;;;;8.82;6.63;;;;;;;1.22;100.00;99608.28;4186150;28;20056;-70
2022/10/09 07:13:31;;;;;;;9.70;6.95;;;;;;;1.27;100.00;99605.53;4186172;28;20396;-70
2022/10/09 07:15:32;;;;;;;11.18;6.47;;;;;;;1.34;100.00;99605.19;4184287;28;20151;-70
2022/10/09 07:17:32;;;;;;;9.98;6.30;;;;;;;1.39;100.00;99610.56;4186478;28;20116;-70
2022/10/09 07:19:32;;;;;;;9.77;6.03;;;;;;;1.47;100.00;99609.13;4185653;28;20465;-70
2022/10/09 07:21:33;;;;;;;10.68;5.88;;;;;;;1.50;100.00;99608.56;4186536;28;20102;-70
2022/10/09 07:23:35;;;;;;;8.75;5.35;;;;;;;1.57;100.00;99609.00;4186113;28;20053;-70
2022/10/09 07:25:38;;;;;;;6.78;5.57;;;;;;;1.66;100.00;99612.72;4185842;28;20142;-70
2022/10/09 07:27:39;;;;;;;7.25;5.40;;;;;;;1.74;100.00;99614.81;4126052;28;20090;-70
2022/10/09 07:29:39;;;;;;;7.03;5.53;;;;;;;1.82;100.00;99605.97;4197270;28;20052;-70
2022/10/09 07:31:39;;;;;;;7.78;5.60;;;;;;;1.89;100.00;99605.59;4186957;28;20477;-70
2022/10/09 07:33:43;;;;;;;7.53;5.10;;;;;;;1.98;100.00;99607.38;4187091;28;20064;-70
2022/10/09 07:35:52;;;;;;;7.47;5.07;;;;;;;2.06;100.00;99607.81;4186690;28;20036;-70
2022/10/09 07:37:52;;;;;;;11.02;5.47;;;;;;;2.14;100.00;99615.34;4173286;28;20071;-70
2022/10/09 07:39:52;;;;;;;8.95;7.07;;;;;;;2.22;100.00;99612.75;4184241;28;20041;-71
2022/10/09 07:41:53;;;;;;;12.65;7.18;;;;;;;2.34;100.00;99611.53;4185831;28;20131;-70
2022/10/09 07:43:53;;;;;;;11.50;8.68;;;;;;;2.40;100.00;99608.44;4184897;28;20527;-70
2022/10/09 07:45:57;;;;;;;16.38;9.20;;;;;;;2.48;100.00;99604.19;4184600;28;21774;-70
2022/10/09 07:47:58;;;;;;;9.65;7.70;;;;;;;2.54;100.00;99609.28;4187243;28;20548;-70
2022/10/09 07:49:59;;;;;;;9.75;6.97;;;;;;;2.62;100.00;99604.25;4184512;28;20083;-71
2022/10/09 07:52:00;;;;;;;9.68;5.72;;;;;;;2.73;100.00;99602.97;4185575;28;20080;-70
2022/10/09 07:54:01;;;;;;;9.77;5.10;;;;;;;2.84;100.00;99609.91;4184790;28;20041;-70
2022/10/09 07:56:03;;;;;;;6.05;4.90;;;;;;;2.89;100.00;99603.50;4185097;28;20040;-71
2022/10/09 07:58:03;;;;;;;8.50;4.85;;;;;;;2.93;100.00;99599.91;4188685;28;20028;-71
2022/10/09 08:00:04;;;;;;;8.65;5.32;;;;;;;2.99;100.00;99601.44;4187751;28;20064;-71
2022/10/09 08:02:04;;;;;;;13.88;7.57;;;;;;;3.09;100.00;99595.78;4188343;28;20028;-71
2022/10/09 08:04:05;;;;;;;25.30;10.07;;;;;;;3.23;100.00;99600.47;4188138;28;20045;-71
2022/10/09 08:06:05;;;;;;;18.60;7.97;;;;;;;3.33;100.00;99600.28;4187922;28;20123;-71
2022/10/09 08:08:06;;;;;;;14.13;7.43;;;;;;;3.42;100.00;99598.44;4188460;28;20211;-71
2022/10/09 08:10:06;;;;;;;8.55;5.45;;;;;;;3.53;100.00;99591.66;4187502;28;20476;-71
2022/10/09 08:12:07;;;;;;;7.30;5.10;;;;;;;3.62;100.00;99597.22;4187811;28;20097;-71
2022/10/09 08:14:11;;;;;;;7.38;5.28;;;;;;;3.73;100.00;99597.84;4187340;28;20127;-71
2022/10/09 08:16:12;;;;;;;10.68;5.82;;;;;;;3.84;100.00;99596.50;4186623;28;20092;-71
2022/10/09 08:18:12;;;;;;;10.07;5.30;;;;;;;3.91;100.00;99602.38;4189330;28;20020;-71
2022/10/09 08:20:13;;;;;;;9.93;4.78;;;;;;;3.99;100.00;99590.69;4187558;28;20029;-71
2022/10/09 08:22:13;;;;;;;6.15;5.07;;;;;;;4.06;100.00;99603.97;4187905;28;20027;-71
2022/10/09 08:24:13;;;;;;;7.43;5.50;;;;;;;4.15;100.00;99596.66;4187551;28;20358;-71
2022/10/09 08:26:19;;;;;;;11.07;5.38;;;;;;;4.23;100.00;99607.69;4188260;28;20412;-71
2022/10/09 08:28:20;;;;;;;9.07;5.50;;;;;;;4.32;100.00;99605.03;4187658;28;20496;-71
2022/10/09 08:30:20;;;;;;;8.38;5.55;;;;;;;4.43;100.00;99600.91;4187314;28;20024;-71
2022/10/09 08:32:21;;;;;;;8.48;5.57;;;;;;;4.50;100.00;99611.44;4188162;28;20431;-71
2022/10/09 08:34:21;;;;;;;9.57;5.10;;;;;;;4.56;100.00;99609.41;4188122;28;20051;-71
2022/10/09 08:36:22;;;;;;;7.15;4.95;;;;;;;4.68;100.00;99612.41;4187826;28;20045;-71
2022/10/09 08:38:23;;;;;;;8.95;5.45;;;;;;;4.78;100.00;99610.19;4187166;28;20040;-71
2022/10/09 08:40:38;;;;;;;12.50;7.40;;;;;;;4.99;100.00;99606.97;4187486;28;20098;-71
2022/10/09 08:42:55;;;;;;;10.82;7.60;;;;;;;5.16;100.00;99601.56;4186343;28;20412;-71
2022/10/09 08:44:55;;;;;;;18.08;9.05;;;;;;;5.27;100.00;99586.44;4187312;28;20044;-71
2022/10/09 08:47:17;;;;;;;9.15;6.97;;;;;;;5.43;100.00;99605.25;4187710;28;20071;-71
2022/10/09 08:49:33;;;;;;;9.75;7.10;;;;;;;5.47;100.00;99607.06;4186700;28;20235;-71
2022/10/09 08:51:37;;;;;;;13.95;7.32;;;;;;;5.54;100.00;99595.59;4186577;28;20044;-71
2022/10/09 08:54:02;;;;;;;11.30;7.75;;;;;;;5.62;100.00;99590.13;4187090;28;20052;-71
2022/10/09 08:56:10;;;;;;;8.13;5.63;;;;;;;5.70;100.00;99574.81;4186355;28;20131;-72
2022/10/09 08:58:16;;;;;;;12.95;6.40;;;;;;;5.83;100.00;99592.31;4187394;28;20021;-71
2022/10/09 09:00:39;;;;;;;8.57;5.88;;;;;;;5.95;100.00;99583.47;4185813;28;20028;-71
2022/10/09 09:03:16;;;;;;;8.17;5.93;;;;;;;6.16;100.00;99579.78;4188797;28;20661;-71
2022/10/09 09:05:38;;;;;;;11.30;6.18;;;;;;;6.30;100.00;99582.38;4186600;28;20344;-71
2022/10/09 09:08:02;;;;;;;7.45;5.38;;;;;;;6.40;100.00;99581.25;4185603;28;20454;-71
2022/10/09 09:10:12;;;;;;;8.48;5.63;;;;;;;6.51;100.00;99579.78;4186623;28;20056;-71
2022/10/09 09:12:38;;;;;;;10.93;5.25;;;;;;;6.62;100.00;99583.84;4186264;28;20116;-71
2022/10/09 09:15:04;;;;;;;10.85;5.45;;;;;;;6.86;100.00;99577.00;4171998;28;20033;-71
2022/10/09 09:17:45;;;;;;;7.35;4.60;;;;;;;6.98;100.00;99577.13;4185819;28;20086;-71
2022/10/09 09:19:53;;;;;;;6.50;3.88;;;;;;;7.11;100.00;99567.84;4181331;28;20044;-71
2022/10/09 09:21:54;;;;;;;6.72;4.45;;;;;;;7.22;100.00;99568.34;4186395;28;20040;-71
2022/10/09 09:23:56;;;;;;;6.18;4.25;;;;;;;7.29;99.10;99572.19;4186551;28;20658;-71
2022/10/09 09:25:58;;;;;;;9.57;3.97;;;;;;;7.51;100.00;99565.59;4185524;28;20508;-71
2022/10/09 09:28:11;;;;;;;4.82;3.05;;;;;;;7.73;100.00;99564.53;4184237;28;20452;-71
2022/10/09 09:30:11;;;;;;;3.83;2.80;;;;;;;7.87;100.00;99565.09;4184864;28;20435;-71
2022/10/09 09:32:18;;;;;;;5.70;2.63;;;;;;;8.09;100.00;99557.66;4185371;28;20028;-71
2022/10/09 09:34:24;;;;;;;10.13;2.75;;;;;;;8.24;99.65;99550.75;4188508;28;20040;-71
2022/10/09 09:36:30;;;;;;;4.30;2.47;;;;;;;8.44;98.70;99549.97;4185599;28;20060;-71